createdAt,value
2019-03-23T00:00:53.772Z,10.00
2019-03-23T00:03:22.170Z,9.90
2019-03-23T00:05:50.674Z,9.90
2019-03-23T00:08:19.519Z,9.90
2019-03-23T00:10:47.923Z,9.90
2019-03-23T00:13:16.349Z,9.80
2019-03-23T00:15:45.888Z,9.90
2019-03-23T00:18:14.532Z,9.80
2019-03-23T00:20:43.981Z,9.70
2019-03-23T00:23:12.326Z,9.50
2019-03-23T00:25:40.625Z,9.40
2019-03-23T00:28:09.214Z,9.30
2019-03-23T00:30:37.669Z,9.30
2019-03-23T00:33:07.034Z,9.20
2019-03-23T00:35:36.237Z,9.20
2019-03-23T00:38:04.608Z,9.10
2019-03-23T00:40:32.984Z,9.10
2019-03-23T00:43:01.559Z,9.10
2019-03-23T00:45:30.354Z,9.10
2019-03-23T00:47:58.844Z,9.00
2019-03-23T00:50:27.558Z,9.00
2019-03-23T00:52:55.847Z,9.10
2019-03-23T00:55:24.204Z,9.10
2019-03-23T00:57:52.531Z,9.20
2019-03-23T01:00:20.772Z,9.20
2019-03-23T01:02:49.079Z,9.30
2019-03-23T01:05:17.395Z,9.40
2019-03-23T01:07:45.655Z,9.50
2019-03-23T01:10:14.068Z,9.50
2019-03-23T01:12:42.529Z,9.50
2019-03-23T01:15:11.177Z,9.50
2019-03-23T01:17:39.697Z,9.50
2019-03-23T01:20:10.071Z,9.40
2019-03-23T01:22:38.742Z,9.30
2019-03-23T01:25:07.514Z,9.30
2019-03-23T01:27:37.463Z,9.30
2019-03-23T01:30:07.441Z,9.30
2019-03-23T01:32:35.790Z,9.20
2019-03-23T01:35:04.824Z,9.20
2019-03-23T01:37:33.371Z,9.10
2019-03-23T01:40:01.752Z,9.10
2019-03-23T01:42:30.335Z,9.00
2019-03-23T01:44:58.554Z,8.80
2019-03-23T01:47:27.031Z,8.80
2019-03-23T01:49:55.475Z,8.70
2019-03-23T01:52:26.677Z,8.70
2019-03-23T01:54:55.293Z,8.60
2019-03-23T01:57:23.779Z,8.70
2019-03-23T01:59:52.250Z,8.60
2019-03-23T02:02:20.805Z,8.60
2019-03-23T02:04:51.519Z,8.60
2019-03-23T02:07:19.855Z,8.50
2019-03-23T02:09:48.239Z,8.50
2019-03-23T02:12:16.627Z,8.50
2019-03-23T02:14:44.986Z,8.40
2019-03-23T02:17:13.502Z,8.40
2019-03-23T02:19:42.514Z,8.40
2019-03-23T02:22:11.213Z,8.30
2019-03-23T02:24:39.519Z,8.30
2019-03-23T02:27:08.040Z,8.30
2019-03-23T02:29:36.349Z,8.30
2019-03-23T02:32:04.693Z,8.30
2019-03-23T02:34:33.165Z,8.20
2019-03-23T02:37:01.548Z,8.20
2019-03-23T02:39:30.123Z,8.20
2019-03-23T02:41:58.664Z,8.20
2019-03-23T02:44:27.089Z,8.20
2019-03-23T02:46:55.491Z,8.20
2019-03-23T02:49:23.934Z,8.10
2019-03-23T02:51:52.294Z,8.00
2019-03-23T02:54:22.176Z,8.10
2019-03-23T02:56:50.696Z,8.20
2019-03-23T02:59:19.102Z,8.50
2019-03-23T03:01:47.493Z,8.60
2019-03-23T03:04:16.133Z,8.70
2019-03-23T03:06:44.659Z,8.80
2019-03-23T03:09:13.050Z,8.80
2019-03-23T03:11:42.423Z,8.80
2019-03-23T03:14:10.697Z,8.80
2019-03-23T03:16:38.976Z,8.80
2019-03-23T03:19:07.354Z,8.80
2019-03-23T03:21:35.688Z,8.70
2019-03-23T03:24:04.095Z,8.70
2019-03-23T03:26:32.530Z,8.70
2019-03-23T03:29:00.903Z,8.60
2019-03-23T03:31:29.499Z,8.60
2019-03-23T03:34:03.728Z,8.60
2019-03-23T03:36:32.424Z,8.60
2019-03-23T03:39:00.853Z,8.60
2019-03-23T03:41:29.212Z,8.60
2019-03-23T03:43:57.631Z,8.50
2019-03-23T03:46:26.125Z,8.50
2019-03-23T03:48:54.666Z,8.50
2019-03-23T03:51:23.935Z,8.40
2019-03-23T03:53:52.911Z,8.30
2019-03-23T03:56:21.619Z,8.30
2019-03-23T03:58:49.989Z,8.20
2019-03-23T04:01:18.391Z,8.30
2019-03-23T04:03:47.025Z,8.20
2019-03-23T04:06:15.404Z,8.20
2019-03-23T04:08:43.793Z,8.10
2019-03-23T04:11:12.140Z,8.10
2019-03-23T04:13:40.462Z,8.10
2019-03-23T04:16:09.281Z,8.00
2019-03-23T04:18:37.732Z,8.00
2019-03-23T04:21:06.044Z,7.90
2019-03-23T04:23:34.522Z,8.00
2019-03-23T04:26:02.840Z,8.10
2019-03-23T04:28:31.111Z,8.10
2019-03-23T04:30:59.573Z,8.10
2019-03-23T04:33:27.796Z,8.10
2019-03-23T04:35:57.766Z,8.10
2019-03-23T04:38:26.188Z,8.10
2019-03-23T04:40:55.231Z,8.00
2019-03-23T04:43:23.649Z,8.00
2019-03-23T04:45:52.011Z,8.00
2019-03-23T04:48:20.302Z,7.90
2019-03-23T04:50:48.682Z,7.90
2019-03-23T04:53:17.243Z,7.80
2019-03-23T04:55:45.561Z,7.80
2019-03-23T04:58:14.846Z,7.80
2019-03-23T05:00:43.239Z,7.80
2019-03-23T05:03:11.569Z,7.80
2019-03-23T05:05:39.951Z,7.80
2019-03-23T05:08:09.461Z,7.80
2019-03-23T05:10:37.897Z,7.80
2019-03-23T05:13:07.267Z,7.80
2019-03-23T05:15:35.674Z,7.80
2019-03-23T05:18:04.073Z,7.70
2019-03-23T05:20:32.352Z,7.70
2019-03-23T05:23:00.733Z,7.70
2019-03-23T05:25:29.345Z,7.80
2019-03-23T05:27:57.736Z,7.80
2019-03-23T05:30:26.255Z,7.80
2019-03-23T05:32:54.928Z,7.80
2019-03-23T05:35:23.290Z,7.80
2019-03-23T05:37:51.563Z,7.80
2019-03-23T05:40:20.849Z,7.80
2019-03-23T05:42:49.260Z,7.70
2019-03-23T05:45:17.484Z,7.70
2019-03-23T05:47:45.790Z,7.70
2019-03-23T05:50:14.181Z,7.70
2019-03-23T05:52:42.668Z,7.60
2019-03-23T05:55:11.218Z,7.60
2019-03-23T05:57:39.835Z,7.60
2019-03-23T06:00:12.183Z,7.60
2019-03-23T06:02:40.456Z,7.60
2019-03-23T06:05:08.915Z,7.60
2019-03-23T06:07:39.634Z,7.70
2019-03-23T06:10:08.060Z,7.70
2019-03-23T06:12:36.586Z,7.70
2019-03-23T06:15:05.829Z,7.70
2019-03-23T06:17:34.128Z,7.70
2019-03-23T06:20:04.800Z,7.70
2019-03-23T06:22:34.131Z,7.60
2019-03-23T06:25:02.646Z,7.60
2019-03-23T06:27:32.055Z,7.60
2019-03-23T06:30:00.409Z,7.70
2019-03-23T06:32:28.667Z,7.60
2019-03-23T06:34:56.966Z,7.60
2019-03-23T06:37:25.337Z,7.70
2019-03-23T06:39:58.251Z,7.70
2019-03-23T06:42:26.792Z,7.80
2019-03-23T06:44:55.587Z,7.70
2019-03-23T06:47:23.896Z,7.70
2019-03-23T06:49:52.354Z,7.60
2019-03-23T06:52:20.691Z,7.70
2019-03-23T06:54:49.309Z,7.70
2019-03-23T06:57:18.566Z,7.80
2019-03-23T06:59:47.152Z,8.00
2019-03-23T07:02:15.442Z,8.00
2019-03-23T07:04:43.930Z,8.00
2019-03-23T07:07:15.288Z,8.20
2019-03-23T07:09:43.393Z,8.40
2019-03-23T07:12:11.926Z,8.50
2019-03-23T07:14:40.466Z,8.60
2019-03-23T07:17:39.960Z,8.60
2019-03-23T07:20:09.977Z,8.70
2019-03-23T07:22:38.464Z,8.70
2019-03-23T07:25:08.687Z,8.80
2019-03-23T07:27:37.204Z,9.00
2019-03-23T07:30:06.553Z,9.10
2019-03-23T07:32:34.864Z,9.20
2019-03-23T07:35:03.328Z,9.30
2019-03-23T07:37:31.675Z,9.40
2019-03-23T07:40:00.334Z,9.40
2019-03-23T07:42:28.789Z,9.50
2019-03-23T07:44:57.984Z,9.60
2019-03-23T07:47:26.619Z,9.70
2019-03-23T07:49:55.100Z,9.70
2019-03-23T07:52:23.462Z,9.80
2019-03-23T07:54:51.947Z,10.00
2019-03-23T07:57:22.328Z,10.10
2019-03-23T07:59:50.951Z,10.20
2019-03-23T08:02:19.595Z,10.30
2019-03-23T08:04:48.459Z,10.40
2019-03-23T08:07:18.333Z,10.50
2019-03-23T08:09:48.286Z,10.60
2019-03-23T08:12:16.754Z,10.70
2019-03-23T08:14:45.151Z,10.80
2019-03-23T08:17:13.598Z,11.00
2019-03-23T08:19:42.183Z,11.00
2019-03-23T08:22:12.329Z,10.90
2019-03-23T08:24:41.743Z,10.90
2019-03-23T08:27:10.186Z,10.90
2019-03-23T08:29:38.620Z,11.00
2019-03-23T08:32:09.542Z,11.00
2019-03-23T08:34:37.863Z,11.10
2019-03-23T08:37:06.257Z,11.30
2019-03-23T08:39:34.657Z,11.40
2019-03-23T08:42:02.943Z,11.30
2019-03-23T08:44:31.679Z,11.30
2019-03-23T08:47:00.367Z,11.30
2019-03-23T08:49:28.740Z,11.30
2019-03-23T08:51:57.790Z,11.40
2019-03-23T08:54:26.450Z,11.60
2019-03-23T08:56:54.836Z,11.50
2019-03-23T08:59:23.379Z,11.50
2019-03-23T09:01:52.076Z,11.60
2019-03-23T09:04:20.665Z,11.60
2019-03-23T09:06:54.200Z,11.80
2019-03-23T09:09:22.909Z,11.90
2019-03-23T09:11:51.437Z,12.10
2019-03-23T09:14:20.128Z,12.10
2019-03-23T09:16:48.583Z,12.10
2019-03-23T09:19:17.308Z,12.20
2019-03-23T09:21:46.001Z,12.30
2019-03-23T09:24:14.599Z,12.40
2019-03-23T09:26:43.279Z,12.40
2019-03-23T09:29:11.980Z,12.30
2019-03-23T09:31:44.426Z,12.30
2019-03-23T09:34:13.905Z,12.40
2019-03-23T09:36:42.586Z,12.60
2019-03-23T09:39:11.386Z,12.30
2019-03-23T09:41:40.112Z,12.20
2019-03-23T09:44:08.709Z,12.40
2019-03-23T09:46:37.112Z,12.50
2019-03-23T09:49:06.999Z,12.60
2019-03-23T09:51:39.732Z,12.70
2019-03-23T09:54:08.784Z,12.70
2019-03-23T09:56:37.284Z,12.90
2019-03-23T09:59:06.445Z,13.10
2019-03-23T10:01:35.505Z,13.10
2019-03-23T10:04:04.169Z,13.20
2019-03-23T10:06:32.708Z,13.20
2019-03-23T10:09:01.458Z,13.30
2019-03-23T10:11:31.680Z,13.40
2019-03-23T10:14:00.343Z,13.60
2019-03-23T10:16:29.134Z,13.70
2019-03-23T10:18:57.663Z,13.60
2019-03-23T10:21:26.159Z,13.70
2019-03-23T10:23:55.071Z,13.70
2019-03-23T10:26:23.764Z,13.80
2019-03-23T10:28:52.363Z,14.00
2019-03-23T10:31:20.939Z,14.10
2019-03-23T10:33:49.503Z,14.10
2019-03-23T10:36:18.136Z,14.20
2019-03-23T10:38:46.640Z,14.20
2019-03-23T10:41:15.053Z,14.30
2019-03-23T10:43:43.542Z,14.50
2019-03-23T10:46:12.084Z,14.50
2019-03-23T10:48:40.632Z,14.60
2019-03-23T10:51:09.188Z,14.70
2019-03-23T10:53:37.866Z,14.90
2019-03-23T10:56:06.316Z,15.00
2019-03-23T10:58:35.037Z,15.00
2019-03-23T11:01:03.936Z,15.20
2019-03-23T11:03:32.489Z,15.20
2019-03-23T11:06:00.978Z,15.30
2019-03-23T11:08:29.488Z,15.50
2019-03-23T11:10:58.130Z,15.80
2019-03-23T11:13:26.915Z,17.10
2019-03-23T11:15:55.571Z,18.30
2019-03-23T11:18:24.215Z,19.40
2019-03-23T11:20:52.666Z,20.30
2019-03-23T11:23:21.515Z,20.20
2019-03-23T11:25:50.092Z,20.90
2019-03-23T11:28:18.775Z,21.80
2019-03-23T11:30:47.359Z,22.30
2019-03-23T11:33:15.948Z,21.70
2019-03-23T11:35:44.478Z,21.20
2019-03-23T11:38:12.980Z,19.90
2019-03-23T11:40:52.054Z,20.30
2019-03-23T11:43:11.859Z,20.30
2019-03-23T11:45:42.618Z,20.50
2019-03-23T11:48:11.031Z,21.40
2019-03-23T11:50:39.471Z,21.50
2019-03-23T11:53:08.535Z,21.70
2019-03-23T11:55:37.027Z,21.10
2019-03-23T11:58:05.412Z,21.80
2019-03-23T12:00:33.972Z,21.70
2019-03-23T12:03:02.311Z,21.80
2019-03-23T12:05:30.748Z,22.00
2019-03-23T12:08:00.493Z,21.80
2019-03-23T12:10:29.165Z,21.20
2019-03-23T12:12:57.665Z,20.60
2019-03-23T12:15:26.114Z,20.00
2019-03-23T12:17:54.612Z,19.80
2019-03-23T12:20:23.489Z,19.90
2019-03-23T12:22:52.159Z,20.10
2019-03-23T12:25:20.543Z,21.20
2019-03-23T12:27:49.072Z,22.00
2019-03-23T12:30:17.988Z,21.90
2019-03-23T12:32:46.426Z,21.90
2019-03-23T12:35:14.932Z,21.40
2019-03-23T12:37:43.588Z,21.20
2019-03-23T12:40:12.093Z,21.30
2019-03-23T12:42:40.623Z,21.70
2019-03-23T12:45:10.376Z,21.30
2019-03-23T12:47:38.926Z,20.70
2019-03-23T12:50:07.585Z,20.40
2019-03-23T12:52:38.704Z,20.10
2019-03-23T12:55:07.649Z,20.20
2019-03-23T12:57:36.120Z,21.20
2019-03-23T13:00:06.185Z,21.90
2019-03-23T13:02:34.731Z,22.00
2019-03-23T13:05:04.192Z,21.90
2019-03-23T13:07:32.755Z,22.20
2019-03-23T13:10:02.455Z,22.90
2019-03-23T13:12:31.006Z,22.90
2019-03-23T13:14:59.692Z,22.80
2019-03-23T13:17:28.332Z,22.40
2019-03-23T13:19:56.997Z,22.00
2019-03-23T13:22:25.680Z,21.70
2019-03-23T13:24:55.288Z,21.60
2019-03-23T13:27:24.308Z,21.20
2019-03-23T13:29:56.859Z,21.10
2019-03-23T13:32:25.994Z,20.90
2019-03-23T13:34:55.592Z,20.40
2019-03-23T13:37:24.249Z,20.80
2019-03-23T13:39:52.766Z,21.10
2019-03-23T13:42:21.250Z,22.30
2019-03-23T13:44:50.410Z,23.70
2019-03-23T13:47:21.976Z,24.00
2019-03-23T13:49:50.607Z,24.00
2019-03-23T13:52:19.212Z,23.40
2019-03-23T13:54:47.761Z,22.70
2019-03-23T13:57:16.450Z,21.70
2019-03-23T13:59:44.884Z,21.30
2019-03-23T14:02:13.472Z,21.30
2019-03-23T14:04:42.746Z,21.70
2019-03-23T14:07:12.181Z,22.10
2019-03-23T14:09:42.559Z,22.40
2019-03-23T14:12:11.103Z,21.50
2019-03-23T14:14:39.684Z,21.60
2019-03-23T14:17:08.128Z,21.40
2019-03-23T14:19:36.879Z,21.60
2019-03-23T14:22:05.431Z,21.90
2019-03-23T14:24:33.907Z,21.40
2019-03-23T14:27:02.638Z,20.90
2019-03-23T14:29:31.175Z,20.90
2019-03-23T14:31:59.560Z,20.40
2019-03-23T14:34:28.034Z,20.50
2019-03-23T14:36:56.606Z,20.00
2019-03-23T14:39:25.361Z,19.70
2019-03-23T14:42:04.760Z,19.40
2019-03-23T14:44:30.245Z,19.20
2019-03-23T14:46:59.040Z,19.30
2019-03-23T14:49:28.865Z,19.30
2019-03-23T14:51:57.953Z,19.30
2019-03-23T14:54:26.569Z,19.30
2019-03-23T14:56:55.361Z,19.20
2019-03-23T14:59:23.946Z,19.20
2019-03-23T15:01:52.647Z,19.00
2019-03-23T15:04:21.358Z,18.80
2019-03-23T15:06:50.275Z,18.70
2019-03-23T15:09:19.091Z,18.50
2019-03-23T15:11:48.288Z,18.30
2019-03-23T15:14:17.019Z,18.20
2019-03-23T15:16:45.644Z,18.20
2019-03-23T15:19:15.629Z,18.30
2019-03-23T15:21:44.188Z,18.20
2019-03-23T15:24:12.585Z,18.10
2019-03-23T15:26:41.071Z,18.20
2019-03-23T15:29:09.613Z,18.10
2019-03-23T15:31:38.595Z,18.10
2019-03-23T15:34:09.087Z,18.00
2019-03-23T15:36:37.648Z,18.00
2019-03-23T15:39:06.987Z,17.80
2019-03-23T15:41:35.392Z,17.60
2019-03-23T15:44:03.786Z,17.50
2019-03-23T15:46:32.606Z,17.50
2019-03-23T15:49:01.280Z,17.40
2019-03-23T15:51:29.763Z,17.20
2019-03-23T15:53:58.134Z,17.10
2019-03-23T15:56:26.894Z,16.90
2019-03-23T15:58:55.354Z,16.90
2019-03-23T16:01:24.688Z,16.80
2019-03-23T16:03:53.044Z,16.70
2019-03-23T16:06:21.518Z,16.60
2019-03-23T16:08:50.337Z,16.50
2019-03-23T16:11:18.758Z,16.30
2019-03-23T16:13:47.339Z,16.20
2019-03-23T16:16:15.893Z,16.00
2019-03-23T16:18:44.215Z,15.80
2019-03-23T16:21:12.715Z,15.70
2019-03-23T16:23:41.328Z,15.70
2019-03-23T16:26:09.703Z,15.60
2019-03-23T16:28:38.134Z,15.40
2019-03-23T16:31:06.553Z,15.40
2019-03-23T16:33:35.224Z,15.30
2019-03-23T16:36:03.710Z,15.10
2019-03-23T16:38:32.513Z,14.90
2019-03-23T16:41:01.355Z,14.80
2019-03-23T16:43:29.742Z,14.80
2019-03-23T16:45:58.151Z,14.70
2019-03-23T16:48:27.642Z,14.70
2019-03-23T16:50:56.488Z,14.60
2019-03-23T16:53:24.742Z,14.50
2019-03-23T16:55:53.384Z,14.50
2019-03-23T16:58:21.626Z,14.50
2019-03-23T17:00:52.119Z,14.40
2019-03-23T17:03:20.839Z,14.30
2019-03-23T17:05:49.469Z,14.30
2019-03-23T17:08:18.684Z,14.20
2019-03-23T17:10:47.054Z,14.20
2019-03-23T17:13:15.775Z,14.10
2019-03-23T17:15:44.868Z,14.00
2019-03-23T17:18:13.697Z,13.90
2019-03-23T17:20:42.172Z,13.90
2019-03-23T17:23:10.551Z,13.80
2019-03-23T17:25:39.355Z,13.70
2019-03-23T17:28:07.967Z,13.50
2019-03-23T17:30:36.328Z,13.40
2019-03-23T17:33:04.942Z,13.40
2019-03-23T17:35:33.544Z,13.30
2019-03-23T17:38:02.264Z,13.20
2019-03-23T17:40:31.608Z,13.10
2019-03-23T17:43:05.982Z,13.10
2019-03-23T17:45:30.775Z,13.00
2019-03-23T17:47:59.355Z,13.00
2019-03-23T17:50:27.915Z,12.90
2019-03-23T17:52:56.430Z,12.80
2019-03-23T17:55:24.951Z,12.70
2019-03-23T17:57:53.380Z,12.70
2019-03-23T18:00:22.329Z,12.60
2019-03-23T18:02:51.160Z,12.50
2019-03-23T18:05:19.890Z,12.50
2019-03-23T18:07:48.299Z,12.40
2019-03-23T18:10:16.906Z,12.40
2019-03-23T18:12:45.345Z,12.30
2019-03-23T18:15:13.833Z,12.30
2019-03-23T18:17:42.463Z,12.20
2019-03-23T18:20:12.319Z,12.10
2019-03-23T18:22:41.094Z,12.10
2019-03-23T18:25:09.846Z,12.00
2019-03-23T18:27:38.343Z,12.10
2019-03-23T18:30:17.359Z,12.00
2019-03-23T18:32:52.407Z,12.00
2019-03-23T18:35:27.136Z,12.00
2019-03-23T18:37:58.251Z,12.00
2019-03-23T18:40:26.775Z,12.00
2019-03-23T18:42:55.682Z,12.00
2019-03-23T18:45:24.432Z,11.90
2019-03-23T18:47:53.233Z,11.90
2019-03-23T18:50:21.798Z,11.90
2019-03-23T18:52:50.260Z,11.80
2019-03-23T18:55:18.992Z,11.80
2019-03-23T18:57:47.620Z,11.80
2019-03-23T19:00:25.907Z,11.70
2019-03-23T19:02:54.651Z,11.60
2019-03-23T19:05:23.342Z,11.60
2019-03-23T19:07:52.640Z,11.50
2019-03-23T19:10:21.687Z,11.50
2019-03-23T19:12:50.512Z,11.50
2019-03-23T19:15:18.996Z,11.40
2019-03-23T19:17:48.879Z,11.40
2019-03-23T19:20:17.402Z,11.40
2019-03-23T19:22:46.139Z,11.40
2019-03-23T19:25:18.156Z,11.30
2019-03-23T19:27:45.030Z,11.20
2019-03-23T19:30:14.896Z,11.20
2019-03-23T19:32:43.337Z,11.20
2019-03-23T19:35:12.064Z,11.20
2019-03-23T19:37:42.492Z,11.10
2019-03-23T19:40:11.384Z,11.10
2019-03-23T19:42:41.587Z,11.00
2019-03-23T19:45:10.477Z,10.90
2019-03-23T19:47:40.063Z,10.90
2019-03-23T19:50:09.084Z,10.80
2019-03-23T19:52:37.659Z,10.80
2019-03-23T19:55:07.460Z,10.80
2019-03-23T19:57:36.112Z,10.80
2019-03-23T20:00:06.909Z,10.70
2019-03-23T20:02:35.707Z,10.70
2019-03-23T20:05:04.528Z,10.70
2019-03-23T20:07:33.553Z,10.60
2019-03-23T20:10:02.678Z,10.60
2019-03-23T20:12:31.260Z,10.50
2019-03-23T20:15:00.318Z,10.50
2019-03-23T20:17:29.144Z,10.50
2019-03-23T20:19:57.825Z,10.40
2019-03-23T20:22:29.280Z,10.40
2019-03-23T20:24:57.969Z,10.40
2019-03-23T20:27:26.576Z,10.40
2019-03-23T20:29:55.193Z,10.30
2019-03-23T20:32:24.530Z,10.30
2019-03-23T20:34:53.093Z,10.30
2019-03-23T20:37:21.592Z,10.20
2019-03-23T20:39:50.495Z,10.10
2019-03-23T20:42:19.130Z,10.10
2019-03-23T20:44:47.815Z,10.10
2019-03-23T20:47:16.181Z,10.00
2019-03-23T20:49:44.763Z,10.00
2019-03-23T20:52:13.447Z,10.00
2019-03-23T20:54:41.996Z,9.90
2019-03-23T20:57:10.338Z,9.90
2019-03-23T20:59:39.120Z,9.90
2019-03-23T21:02:07.556Z,9.80
2019-03-23T21:04:36.127Z,9.80
2019-03-23T21:07:04.758Z,9.80
2019-03-23T21:09:33.286Z,9.80
2019-03-23T21:12:01.877Z,9.70
2019-03-23T21:14:30.532Z,9.70
2019-03-23T21:16:59.461Z,9.70
2019-03-23T21:19:28.228Z,9.70
2019-03-23T21:21:57.211Z,9.70
2019-03-23T21:24:25.740Z,9.60
2019-03-23T21:26:54.373Z,9.60
2019-03-23T21:29:22.925Z,9.60
2019-03-23T21:31:51.842Z,9.50
2019-03-23T21:34:20.682Z,9.50
2019-03-23T21:36:49.419Z,9.40
2019-03-23T21:39:17.815Z,9.40
2019-03-23T21:41:46.808Z,9.40
2019-03-23T21:44:15.663Z,9.30
2019-03-23T21:46:44.357Z,9.30
2019-03-23T21:49:12.820Z,9.30
2019-03-23T21:51:41.370Z,9.30
2019-03-23T21:54:10.066Z,9.20
2019-03-23T21:56:39.003Z,9.20
2019-03-23T21:59:11.938Z,9.20
2019-03-23T22:01:41.587Z,9.20
2019-03-23T22:04:10.068Z,9.10
2019-03-23T22:06:39.273Z,9.00
2019-03-23T22:09:08.006Z,9.00
2019-03-23T22:11:36.620Z,9.00
2019-03-23T22:14:05.509Z,9.00
2019-03-23T22:16:34.350Z,9.00
2019-03-23T22:19:06.038Z,8.90
2019-03-23T22:21:35.708Z,8.90
2019-03-23T22:24:04.216Z,8.80
2019-03-23T22:26:33.084Z,8.80
2019-03-23T22:29:01.606Z,8.80
2019-03-23T22:31:31.645Z,8.80
2019-03-23T22:34:00.731Z,8.70
2019-03-23T22:36:29.377Z,8.60
2019-03-23T22:38:58.374Z,8.60
2019-03-23T22:41:27.003Z,8.60
2019-03-23T22:43:55.583Z,8.50
2019-03-23T22:46:24.406Z,8.50
2019-03-23T22:48:53.101Z,8.50
2019-03-23T22:51:22.057Z,8.50
2019-03-23T22:53:50.779Z,8.40
2019-03-23T22:56:19.451Z,8.40
2019-03-23T22:58:47.983Z,8.40
2019-03-23T23:01:16.363Z,8.40
2019-03-23T23:03:45.023Z,8.30
2019-03-23T23:06:14.589Z,8.30
2019-03-23T23:08:43.107Z,8.30
2019-03-23T23:11:11.516Z,8.30
2019-03-23T23:13:39.988Z,8.20
2019-03-23T23:16:08.646Z,8.20
2019-03-23T23:18:37.130Z,8.20
2019-03-23T23:21:05.758Z,8.20
2019-03-23T23:23:39.431Z,8.20
2019-03-23T23:26:08.137Z,8.10
2019-03-23T23:28:36.942Z,8.10
2019-03-23T23:31:05.321Z,8.10
2019-03-23T23:33:33.858Z,8.10
2019-03-23T23:36:02.445Z,8.00
2019-03-23T23:38:30.914Z,8.10
2019-03-23T23:41:00.631Z,8.10
2019-03-23T23:43:29.018Z,8.00
2019-03-23T23:45:57.528Z,8.00
2019-03-23T23:48:26.137Z,8.00
2019-03-23T23:50:54.667Z,8.00
2019-03-23T23:53:23.191Z,8.00
2019-03-23T23:55:51.740Z,8.00
2019-03-23T23:58:20.233Z,8.00
